Terminal Aerodrome Forecast
Issued by NWS

Home | Current Version | Previous Version | Text Only | Print | Product List | Glossary On
Versions: 1 2 3 4 5 6 7 8 9 10 11 12 13 14
000
FTPA31 PHFO 271740
TAFHOG
TAF
PHOG 271740Z 2718/2818 06008KT P6SM FEW030 SCT050 BKN250
     FM272100 05014KT P6SM SCT030 SCT050 BKN200
     FM280600 06008KT P6SM VCSH SCT025 BKN050 BKN180
      AMD LTD TO VIS AND WIND 2809/2816=

USA.gov is the U.S. government's official web portal to all federal, state and local government web resources and services.